createdAt,value
2023-01-29T00:00:22.392Z,1017.43
2023-01-29T00:01:02.987Z,1017.47
2023-01-29T00:01:43.569Z,1017.46
2023-01-29T00:02:24.106Z,1017.48
2023-01-29T00:04:21.945Z,1017.47
2023-01-29T00:05:13.110Z,1017.46
2023-01-29T00:05:42.997Z,1017.43
2023-01-29T00:06:23.601Z,1017.39
2023-01-29T00:07:04.127Z,1017.41
2023-01-29T00:07:44.652Z,1017.39
2023-01-29T00:08:25.185Z,1017.35
2023-01-29T00:09:05.702Z,1017.36
2023-01-29T00:09:47.744Z,1017.34
2023-01-29T00:10:28.311Z,1017.38
2023-01-29T00:11:08.821Z,1017.36
2023-01-29T00:11:50.159Z,1017.35
2023-01-29T00:12:30.705Z,1017.38
2023-01-29T00:14:44.249Z,1017.39
2023-01-29T00:15:24.937Z,1017.39
2023-01-29T00:16:06.843Z,1017.42
2023-01-29T00:16:49.048Z,1017.4
2023-01-29T00:19:02.089Z,1017.4
2023-01-29T00:19:42.595Z,1017.41
2023-01-29T00:20:23.099Z,1017.39
2023-01-29T00:21:03.658Z,1017.39
2023-01-29T00:21:44.177Z,1017.4
2023-01-29T00:22:24.686Z,1017.37
2023-01-29T00:23:05.752Z,1017.38
2023-01-29T00:24:58.614Z,1017.39
2023-01-29T00:25:39.132Z,1017.37
2023-01-29T00:26:20.275Z,1017.38
2023-01-29T00:27:00.793Z,1017.38
2023-01-29T00:27:41.293Z,1017.38
2023-01-29T00:28:21.807Z,1017.34
2023-01-29T00:29:02.322Z,1017.39
2023-01-29T00:29:42.836Z,1017.36
2023-01-29T00:31:56.539Z,1017.35
2023-01-29T00:32:37.655Z,1017.36
2023-01-29T00:33:18.191Z,1017.39
2023-01-29T00:33:58.730Z,1017.37
2023-01-29T00:35:56.622Z,1017.34
2023-01-29T00:36:37.131Z,1017.32
2023-01-29T00:37:17.659Z,1017.37
2023-01-29T00:37:58.178Z,1017.37
2023-01-29T00:38:38.710Z,1017.35
2023-01-29T00:39:19.226Z,1017.35
2023-01-29T00:41:34.011Z,1017.36
2023-01-29T00:42:15.063Z,1017.37
2023-01-29T00:42:55.606Z,1017.39
2023-01-29T00:43:36.124Z,1017.35
2023-01-29T00:44:16.621Z,1017.36
2023-01-29T00:47:48.689Z,1017.27
2023-01-29T00:48:29.207Z,1017.3
2023-01-29T00:49:09.719Z,1017.33
2023-01-29T00:49:50.269Z,1017.33
2023-01-29T00:50:30.788Z,1017.34
2023-01-29T00:51:11.304Z,1017.34
2023-01-29T00:51:51.800Z,1017.37
2023-01-29T00:52:32.324Z,1017.33
2023-01-29T00:53:12.856Z,1017.35
2023-01-29T00:53:53.375Z,1017.34
2023-01-29T00:54:33.888Z,1017.32
2023-01-29T00:55:14.422Z,1017.35
2023-01-29T00:57:12.529Z,1017.37
2023-01-29T00:57:52.930Z,1017.39
2023-01-29T00:58:33.434Z,1017.36
2023-01-29T00:59:13.940Z,1017.4
2023-01-29T00:59:54.477Z,1017.41
2023-01-29T01:00:35.015Z,1017.39
2023-01-29T01:01:15.534Z,1017.38
2023-01-29T01:01:56.051Z,1017.38
2023-01-29T01:02:36.541Z,1017.4
2023-01-29T01:03:17.068Z,1017.38
2023-01-29T01:03:58.293Z,1017.39
2023-01-29T01:04:38.791Z,1017.37
2023-01-29T01:05:19.323Z,1017.41
2023-01-29T01:05:59.857Z,1017.42
2023-01-29T01:06:40.396Z,1017.43
2023-01-29T01:08:58.492Z,1017.49
2023-01-29T01:09:39.042Z,1017.49
2023-01-29T01:10:19.593Z,1017.48
2023-01-29T01:11:00.137Z,1017.46
2023-01-29T01:11:40.593Z,1017.51
2023-01-29T01:12:21.137Z,1017.44
2023-01-29T01:13:01.660Z,1017.46
2023-01-29T01:13:42.144Z,1017.47
2023-01-29T01:14:22.657Z,1017.44
2023-01-29T01:15:03.196Z,1017.45
2023-01-29T01:15:43.704Z,1017.42
2023-01-29T01:16:24.251Z,1017.43
2023-01-29T01:17:04.745Z,1017.44
2023-01-29T01:17:45.251Z,1017.43
2023-01-29T01:18:25.761Z,1017.44
2023-01-29T01:19:06.275Z,1017.47
2023-01-29T01:19:46.792Z,1017.45
2023-01-29T01:20:27.296Z,1017.43
2023-01-29T01:22:26.834Z,1017.43
2023-01-29T01:23:07.380Z,1017.44
2023-01-29T01:23:47.929Z,1017.45
2023-01-29T01:24:28.431Z,1017.44
2023-01-29T01:26:41.417Z,1017.44
2023-01-29T01:27:21.931Z,1017.46
2023-01-29T01:28:02.512Z,1017.47
2023-01-29T01:28:43.645Z,1017.47
2023-01-29T01:30:57.223Z,1017.49
2023-01-29T01:31:37.704Z,1017.47
2023-01-29T01:32:18.196Z,1017.5
2023-01-29T01:32:58.732Z,1017.52
2023-01-29T01:36:16.589Z,1017.54
2023-01-29T01:36:57.694Z,1017.56
2023-01-29T01:37:38.201Z,1017.56
2023-01-29T01:38:19.687Z,1017.57
2023-01-29T01:40:37.816Z,1017.6
2023-01-29T01:41:18.333Z,1017.57
2023-01-29T01:41:58.825Z,1017.57
2023-01-29T01:42:39.364Z,1017.53
2023-01-29T01:43:19.948Z,1017.52
2023-01-29T01:44:00.477Z,1017.51
2023-01-29T01:44:41.020Z,1017.51
2023-01-29T01:45:21.572Z,1017.5
2023-01-29T01:46:02.163Z,1017.48
2023-01-29T01:46:42.738Z,1017.47
2023-01-29T01:47:23.308Z,1017.51
2023-01-29T01:49:21.272Z,1017.46
2023-01-29T01:50:01.845Z,1017.48
2023-01-29T01:50:42.373Z,1017.47
2023-01-29T01:51:23.795Z,1017.45
2023-01-29T01:52:04.318Z,1017.45
2023-01-29T01:52:44.874Z,1017.48
2023-01-29T01:53:25.464Z,1017.46
2023-01-29T01:54:06.030Z,1017.48
2023-01-29T01:55:58.967Z,1017.41
2023-01-29T01:56:39.575Z,1017.38
2023-01-29T01:57:20.238Z,1017.43
2023-01-29T01:58:00.778Z,1017.39
2023-01-29T01:58:41.335Z,1017.36
2023-01-29T02:00:40.296Z,1017.31
2023-01-29T02:01:20.825Z,1017.34
2023-01-29T02:02:01.368Z,1017.35
2023-01-29T02:02:42.767Z,1017.32
2023-01-29T02:03:23.326Z,1017.34
2023-01-29T02:04:03.900Z,1017.33
2023-01-29T02:04:44.436Z,1017.34
2023-01-29T02:05:24.988Z,1017.32
2023-01-29T02:06:05.495Z,1017.32
2023-01-29T02:06:46.880Z,1017.34
2023-01-29T02:07:27.380Z,1017.35
2023-01-29T02:08:07.898Z,1017.33
2023-01-29T02:08:48.431Z,1017.34
2023-01-29T02:09:28.998Z,1017.35
2023-01-29T02:11:26.944Z,1017.39
2023-01-29T02:12:07.456Z,1017.35
2023-01-29T02:12:47.961Z,1017.37
2023-01-29T02:13:28.519Z,1017.37
2023-01-29T02:14:09.951Z,1017.4
2023-01-29T02:14:50.464Z,1017.4
2023-01-29T02:15:30.987Z,1017.43
2023-01-29T02:16:11.539Z,1017.42
2023-01-29T02:16:52.699Z,1017.39
2023-01-29T02:17:33.360Z,1017.42
2023-01-29T02:18:13.870Z,1017.39
2023-01-29T02:21:31.157Z,1017.42
2023-01-29T02:22:11.707Z,1017.46
2023-01-29T02:22:52.232Z,1017.47
2023-01-29T02:23:32.868Z,1017.42
2023-01-29T02:24:13.535Z,1017.44
2023-01-29T02:24:54.045Z,1017.43
2023-01-29T02:25:34.567Z,1017.42
2023-01-29T02:26:16.072Z,1017.44
2023-01-29T02:26:56.571Z,1017.48
2023-01-29T02:27:37.105Z,1017.38
2023-01-29T02:28:17.671Z,1017.41
2023-01-29T02:28:58.198Z,1017.41
2023-01-29T02:29:38.842Z,1017.42
2023-01-29T02:30:19.412Z,1017.44
2023-01-29T02:30:59.851Z,1017.44
2023-01-29T02:31:40.388Z,1017.47
2023-01-29T02:32:20.962Z,1017.47
2023-01-29T02:33:01.534Z,1017.48
2023-01-29T02:33:42.023Z,1017.45
2023-01-29T02:34:22.552Z,1017.49
2023-01-29T02:36:40.712Z,1017.41
2023-01-29T02:37:21.886Z,1017.38
2023-01-29T02:38:02.414Z,1017.42
2023-01-29T02:38:42.911Z,1017.4
2023-01-29T02:40:56.490Z,1017.39
2023-01-29T02:41:37.015Z,1017.41
2023-01-29T02:42:17.567Z,1017.43
2023-01-29T02:42:58.091Z,1017.43
2023-01-29T02:44:56.078Z,1017.39
2023-01-29T02:45:38.373Z,1017.39
2023-01-29T02:46:18.991Z,1017.39
2023-01-29T02:46:59.348Z,1017.39
2023-01-29T02:50:32.355Z,1017.4
2023-01-29T02:51:12.893Z,1017.35
2023-01-29T02:51:53.442Z,1017.41
2023-01-29T02:52:33.943Z,1017.35
2023-01-29T02:53:14.478Z,1017.3
2023-01-29T02:53:54.996Z,1017.34
2023-01-29T02:54:35.555Z,1017.33
2023-01-29T02:55:16.111Z,1017.37
2023-01-29T02:55:56.633Z,1017.35
2023-01-29T02:56:37.137Z,1017.34
2023-01-29T02:57:17.656Z,1017.34
2023-01-29T02:57:58.181Z,1017.33
2023-01-29T02:58:38.736Z,1017.34
2023-01-29T02:59:19.241Z,1017.29
2023-01-29T02:59:59.782Z,1017.26
2023-01-29T03:00:40.286Z,1017.26
2023-01-29T03:01:20.869Z,1017.24
2023-01-29T03:02:01.870Z,1017.26
2023-01-29T03:02:42.403Z,1017.28
2023-01-29T03:03:22.948Z,1017.28
2023-01-29T03:04:03.470Z,1017.28
2023-01-29T03:04:43.996Z,1017.22
2023-01-29T03:05:24.509Z,1017.22
2023-01-29T03:06:05.018Z,1017.19
2023-01-29T03:08:18.099Z,1017.22
2023-01-29T03:08:58.629Z,1017.26
2023-01-29T03:09:39.166Z,1017.24
2023-01-29T03:10:19.690Z,1017.21
2023-01-29T03:11:00.845Z,1017.22
2023-01-29T03:11:41.308Z,1017.23
2023-01-29T03:12:21.859Z,1017.23
2023-01-29T03:13:02.399Z,1017.22
2023-01-29T03:13:42.932Z,1017.2
2023-01-29T03:14:23.485Z,1017.19
2023-01-29T03:15:04.019Z,1017.2
2023-01-29T03:15:44.507Z,1017.2
2023-01-29T03:16:25.045Z,1017.2
2023-01-29T03:17:05.530Z,1017.24
2023-01-29T03:17:46.086Z,1017.23
2023-01-29T03:18:26.705Z,1017.26
2023-01-29T03:19:07.259Z,1017.31
2023-01-29T03:19:47.787Z,1017.28
2023-01-29T03:20:28.358Z,1017.24
2023-01-29T03:21:08.916Z,1017.27
2023-01-29T03:21:49.391Z,1017.24
2023-01-29T03:22:29.901Z,1017.23
2023-01-29T03:23:10.468Z,1017.23
2023-01-29T03:23:51.002Z,1017.19
2023-01-29T03:24:31.499Z,1017.25
2023-01-29T03:25:12.003Z,1017.25
2023-01-29T03:25:52.538Z,1017.24
2023-01-29T03:26:34.029Z,1017.24
2023-01-29T03:27:14.531Z,1017.19
2023-01-29T03:29:13.045Z,1017.23
2023-01-29T03:29:53.594Z,1017.23
2023-01-29T03:30:34.179Z,1017.21
2023-01-29T03:31:14.745Z,1017.22
2023-01-29T03:33:27.742Z,1017.28
2023-01-29T03:34:08.357Z,1017.27
2023-01-29T03:34:48.902Z,1017.3
2023-01-29T03:35:29.438Z,1017.26
2023-01-29T03:37:27.833Z,1017.29
2023-01-29T03:38:08.943Z,1017.3
2023-01-29T03:38:54.734Z,1017.3
2023-01-29T03:39:36.189Z,1017.27
2023-01-29T03:40:21.188Z,1017.25
2023-01-29T03:41:02.443Z,1017.26
2023-01-29T03:41:43.509Z,1017.24
2023-01-29T03:43:57.045Z,1017.23
2023-01-29T03:44:37.544Z,1017.27
2023-01-29T03:45:18.128Z,1017.24
2023-01-29T03:45:58.721Z,1017.24
2023-01-29T03:46:39.173Z,1017.26
2023-01-29T03:47:19.702Z,1017.27
2023-01-29T03:48:00.725Z,1017.27
2023-01-29T03:48:42.047Z,1017.27
2023-01-29T03:49:22.552Z,1017.28
2023-01-29T03:50:03.063Z,1017.29
2023-01-29T03:50:43.628Z,1017.3
2023-01-29T03:51:24.928Z,1017.26
2023-01-29T03:52:05.503Z,1017.29
2023-01-29T03:52:46.006Z,1017.3
2023-01-29T03:53:26.525Z,1017.26
2023-01-29T03:54:07.021Z,1017.26
2023-01-29T03:54:47.567Z,1017.25
2023-01-29T03:55:28.083Z,1017.3
2023-01-29T03:56:08.679Z,1017.28
2023-01-29T03:56:49.197Z,1017.31
2023-01-29T03:57:29.725Z,1017.32
2023-01-29T03:58:10.285Z,1017.31
2023-01-29T03:58:50.772Z,1017.31
2023-01-29T03:59:31.290Z,1017.35
2023-01-29T04:00:11.834Z,1017.29
2023-01-29T04:00:52.352Z,1017.32
2023-01-29T04:01:32.902Z,1017.31
2023-01-29T04:02:13.404Z,1017.32
2023-01-29T04:02:53.923Z,1017.31
2023-01-29T04:03:34.444Z,1017.37
2023-01-29T04:04:15.083Z,1017.37
2023-01-29T04:04:55.472Z,1017.36
2023-01-29T04:05:35.977Z,1017.38
2023-01-29T04:06:16.493Z,1017.33
2023-01-29T04:06:57.021Z,1017.37
2023-01-29T04:07:38.310Z,1017.34
2023-01-29T04:08:18.839Z,1017.34
2023-01-29T04:08:59.417Z,1017.38
2023-01-29T04:09:39.939Z,1017.37
2023-01-29T04:10:21.152Z,1017.35
2023-01-29T04:11:01.664Z,1017.35
2023-01-29T04:11:42.157Z,1017.36
2023-01-29T04:12:22.687Z,1017.35
2023-01-29T04:13:03.277Z,1017.37
2023-01-29T04:13:43.761Z,1017.37
2023-01-29T04:14:24.262Z,1017.34
2023-01-29T04:15:04.787Z,1017.36
2023-01-29T04:15:45.308Z,1017.35
2023-01-29T04:16:25.860Z,1017.39
2023-01-29T04:17:06.323Z,1017.39
2023-01-29T04:17:46.839Z,1017.39
2023-01-29T04:18:27.338Z,1017.35
2023-01-29T04:19:07.855Z,1017.38
2023-01-29T04:19:48.366Z,1017.41
2023-01-29T04:20:28.907Z,1017.38
2023-01-29T04:21:09.412Z,1017.35
2023-01-29T04:21:49.918Z,1017.38
2023-01-29T04:22:30.428Z,1017.34
2023-01-29T04:24:45.471Z,1017.36
2023-01-29T04:25:27.460Z,1017.38
2023-01-29T04:26:08.601Z,1017.39
2023-01-29T04:26:50.388Z,1017.35
2023-01-29T04:29:05.732Z,1017.37
2023-01-29T04:29:46.242Z,1017.35
2023-01-29T04:30:26.777Z,1017.38
2023-01-29T04:31:07.451Z,1017.41
2023-01-29T04:31:47.869Z,1017.39
2023-01-29T04:32:28.327Z,1017.4
2023-01-29T04:33:08.858Z,1017.4
2023-01-29T04:33:49.395Z,1017.38
2023-01-29T04:36:02.429Z,1017.4
2023-01-29T04:36:42.941Z,1017.4
2023-01-29T04:37:23.453Z,1017.44
2023-01-29T04:38:04.505Z,1017.42
2023-01-29T04:38:45.051Z,1017.41
2023-01-29T04:39:25.583Z,1017.46
2023-01-29T04:40:06.111Z,1017.45
2023-01-29T04:40:46.632Z,1017.48
2023-01-29T04:41:28.096Z,1017.49
2023-01-29T04:42:08.595Z,1017.48
2023-01-29T04:42:49.105Z,1017.51
2023-01-29T04:43:29.630Z,1017.48
2023-01-29T04:44:10.131Z,1017.46
2023-01-29T04:44:50.650Z,1017.47
2023-01-29T04:45:31.233Z,1017.48
2023-01-29T04:46:11.746Z,1017.38
2023-01-29T04:46:52.335Z,1017.41
2023-01-29T04:47:32.867Z,1017.41
2023-01-29T04:48:13.386Z,1017.39
2023-01-29T04:48:53.933Z,1017.37
2023-01-29T04:49:34.482Z,1017.37
2023-01-29T04:50:15.257Z,1017.36
2023-01-29T04:50:55.509Z,1017.34
2023-01-29T04:51:36.052Z,1017.36
2023-01-29T04:52:16.597Z,1017.39
2023-01-29T04:52:57.086Z,1017.36
2023-01-29T04:53:37.613Z,1017.34
2023-01-29T04:54:18.132Z,1017.36
2023-01-29T04:54:58.675Z,1017.35
2023-01-29T04:55:39.214Z,1017.35
2023-01-29T04:56:19.733Z,1017.39
2023-01-29T04:57:00.247Z,1017.37
2023-01-29T04:58:58.252Z,1017.43
2023-01-29T04:59:38.737Z,1017.4
2023-01-29T05:00:19.378Z,1017.42
2023-01-29T05:00:59.750Z,1017.38
2023-01-29T05:01:40.319Z,1017.39
2023-01-29T05:02:20.774Z,1017.41
2023-01-29T05:03:01.418Z,1017.4
2023-01-29T05:03:41.952Z,1017.43
2023-01-29T05:04:22.507Z,1017.4
2023-01-29T05:05:02.981Z,1017.42
2023-01-29T05:05:43.504Z,1017.44
2023-01-29T05:06:24.129Z,1017.42
2023-01-29T05:07:04.625Z,1017.49
2023-01-29T05:07:45.173Z,1017.47
2023-01-29T05:08:25.686Z,1017.5
2023-01-29T05:09:06.205Z,1017.48
2023-01-29T05:09:46.716Z,1017.52
2023-01-29T05:10:27.243Z,1017.52
2023-01-29T05:11:07.757Z,1017.55
2023-01-29T05:11:48.265Z,1017.58
2023-01-29T05:12:28.789Z,1017.58
2023-01-29T05:13:09.342Z,1017.58
2023-01-29T05:13:49.864Z,1017.55
2023-01-29T05:14:30.408Z,1017.55
2023-01-29T05:15:10.923Z,1017.52
2023-01-29T05:15:51.504Z,1017.46
2023-01-29T05:16:31.955Z,1017.44
2023-01-29T05:17:12.426Z,1017.36
2023-01-29T05:17:52.960Z,1017.36
2023-01-29T05:18:33.482Z,1017.29
2023-01-29T05:19:14.030Z,1017.3
2023-01-29T05:19:54.572Z,1017.31
2023-01-29T05:20:35.126Z,1017.29
2023-01-29T05:22:33.961Z,1017.31
2023-01-29T05:23:14.490Z,1017.28
2023-01-29T05:23:55.083Z,1017.27
2023-01-29T05:24:35.512Z,1017.21
2023-01-29T05:25:16.038Z,1017.18
2023-01-29T05:25:56.531Z,1017.21
2023-01-29T05:26:37.043Z,1017.14
2023-01-29T05:27:17.558Z,1017.07
2023-01-29T05:27:58.081Z,1017.1
2023-01-29T05:28:38.601Z,1017.04
2023-01-29T05:29:19.115Z,1017.06
2023-01-29T05:29:59.608Z,1017.02
2023-01-29T05:30:40.314Z,1017.02
2023-01-29T05:31:20.944Z,1017
2023-01-29T05:32:01.304Z,1017.04
2023-01-29T05:32:42.772Z,1017.01
2023-01-29T05:33:23.277Z,1017.03
2023-01-29T05:34:03.793Z,1017.06
2023-01-29T05:34:44.319Z,1017.07
2023-01-29T05:35:24.852Z,1017.15
2023-01-29T05:37:37.978Z,1017.16
2023-01-29T05:38:18.496Z,1017.15
2023-01-29T05:38:59.040Z,1017.14
2023-01-29T05:39:40.957Z,1017.12
2023-01-29T05:42:11.404Z,1016.98
2023-01-29T05:42:51.908Z,1016.98
2023-01-29T05:43:32.429Z,1016.99
2023-01-29T05:44:12.936Z,1016.99
2023-01-29T05:44:53.637Z,1017.01
2023-01-29T05:45:34.116Z,1017.07
2023-01-29T05:46:14.673Z,1017.12
2023-01-29T05:46:55.254Z,1017.14
2023-01-29T05:47:36.558Z,1017.16
2023-01-29T05:48:17.107Z,1017.22
2023-01-29T05:48:57.608Z,1017.18
2023-01-29T05:49:38.826Z,1017.2
2023-01-29T05:50:18.970Z,1017.19
2023-01-29T05:50:59.152Z,1017.2
2023-01-29T05:51:39.656Z,1017.15
2023-01-29T05:52:20.194Z,1017.11
2023-01-29T05:53:00.684Z,1017.08
2023-01-29T05:53:41.262Z,1017.09
2023-01-29T05:54:21.749Z,1017.04
2023-01-29T05:55:02.291Z,1017.1
2023-01-29T05:55:42.794Z,1017.15
2023-01-29T05:56:23.304Z,1017.14
2023-01-29T05:59:39.646Z,1017.23
2023-01-29T06:00:20.211Z,1017.23
2023-01-29T06:01:00.740Z,1017.26
2023-01-29T06:01:41.299Z,1017.24
2023-01-29T06:02:21.794Z,1017.24
2023-01-29T06:03:02.346Z,1017.26
2023-01-29T06:03:42.809Z,1017.32
2023-01-29T06:04:23.329Z,1017.35
2023-01-29T06:05:03.835Z,1017.33
2023-01-29T06:05:44.482Z,1017.35
2023-01-29T06:06:25.000Z,1017.37
2023-01-29T06:07:05.529Z,1017.39
2023-01-29T06:07:46.033Z,1017.38
2023-01-29T06:08:26.582Z,1017.4
2023-01-29T06:09:07.105Z,1017.36
2023-01-29T06:09:47.680Z,1017.35
2023-01-29T06:10:28.954Z,1017.35
2023-01-29T06:11:09.473Z,1017.37
2023-01-29T06:11:50.007Z,1017.36
2023-01-29T06:12:30.511Z,1017.34
2023-01-29T06:13:11.017Z,1017.39
2023-01-29T06:13:51.561Z,1017.39
2023-01-29T06:14:32.106Z,1017.39
2023-01-29T06:15:12.616Z,1017.36
2023-01-29T06:15:53.167Z,1017.37
2023-01-29T06:16:33.721Z,1017.38
2023-01-29T06:17:14.206Z,1017.37
2023-01-29T06:17:55.370Z,1017.35
2023-01-29T06:18:35.944Z,1017.34
2023-01-29T06:19:16.434Z,1017.32
2023-01-29T06:19:56.982Z,1017.36
2023-01-29T06:20:37.480Z,1017.36
2023-01-29T06:21:20.013Z,1017.37
2023-01-29T06:21:58.531Z,1017.4
2023-01-29T06:22:39.050Z,1017.4
2023-01-29T06:23:19.583Z,1017.41
2023-01-29T06:24:00.998Z,1017.41
2023-01-29T06:24:41.496Z,1017.4
2023-01-29T06:25:22.019Z,1017.37
2023-01-29T06:26:02.520Z,1017.37
2023-01-29T06:26:43.043Z,1017.4
2023-01-29T06:27:23.541Z,1017.38
2023-01-29T06:28:04.057Z,1017.35
2023-01-29T06:28:44.569Z,1017.34
2023-01-29T06:29:25.090Z,1017.32
2023-01-29T06:30:05.609Z,1017.33
2023-01-29T06:30:46.116Z,1017.32
2023-01-29T06:31:38.156Z,1017.32
2023-01-29T06:32:07.194Z,1017.32
2023-01-29T06:32:47.647Z,1017.29
2023-01-29T06:33:28.143Z,1017.29
2023-01-29T06:34:08.688Z,1017.3
2023-01-29T06:34:49.826Z,1017.29
2023-01-29T06:35:29.698Z,1017.3
2023-01-29T06:36:10.195Z,1017.3
2023-01-29T06:36:50.711Z,1017.29
2023-01-29T06:37:31.272Z,1017.31
2023-01-29T06:38:11.759Z,1017.28
2023-01-29T06:38:52.262Z,1017.24
2023-01-29T06:41:06.719Z,1017.28
2023-01-29T06:41:47.269Z,1017.26
2023-01-29T06:42:27.976Z,1017.26
2023-01-29T06:43:08.336Z,1017.27
2023-01-29T06:45:28.923Z,1017.23
2023-01-29T06:46:09.373Z,1017.23
2023-01-29T06:46:49.886Z,1017.26
2023-01-29T06:47:30.407Z,1017.23
2023-01-29T06:48:10.953Z,1017.24
2023-01-29T06:48:51.461Z,1017.25
2023-01-29T06:49:32.046Z,1017.24
2023-01-29T06:50:12.554Z,1017.23
2023-01-29T06:50:53.089Z,1017.23
2023-01-29T06:51:33.601Z,1017.24
2023-01-29T06:52:14.165Z,1017.25
2023-01-29T06:52:54.686Z,1017.25
2023-01-29T06:53:35.223Z,1017.27
2023-01-29T06:54:15.721Z,1017.22
2023-01-29T06:54:56.268Z,1017.23
2023-01-29T06:55:36.752Z,1017.21
2023-01-29T06:56:17.265Z,1017.25
2023-01-29T06:56:57.821Z,1017.22
2023-01-29T06:57:38.311Z,1017.23
2023-01-29T06:58:18.843Z,1017.23
2023-01-29T06:58:59.355Z,1017.22
2023-01-29T06:59:39.874Z,1017.22
2023-01-29T07:00:20.497Z,1017.24
2023-01-29T07:01:01.127Z,1017.22
2023-01-29T07:01:41.619Z,1017.21
2023-01-29T07:02:24.077Z,1017.25
2023-01-29T07:03:04.466Z,1017.22
2023-01-29T07:03:45.003Z,1017.23
2023-01-29T07:04:25.487Z,1017.27
2023-01-29T07:05:05.989Z,1017.28
2023-01-29T07:05:46.516Z,1017.3
2023-01-29T07:06:27.037Z,1017.29
2023-01-29T07:07:07.550Z,1017.35
2023-01-29T07:07:48.053Z,1017.35
2023-01-29T07:08:28.590Z,1017.35
2023-01-29T07:09:09.084Z,1017.33
2023-01-29T07:09:49.609Z,1017.39
2023-01-29T07:10:30.209Z,1017.4
2023-01-29T07:11:10.697Z,1017.37
2023-01-29T07:11:51.189Z,1017.38
2023-01-29T07:12:31.709Z,1017.38
2023-01-29T07:13:12.252Z,1017.37
2023-01-29T07:13:52.773Z,1017.4
2023-01-29T07:14:33.267Z,1017.38
2023-01-29T07:15:14.530Z,1017.39
2023-01-29T07:15:55.191Z,1017.39
2023-01-29T07:16:35.642Z,1017.4
2023-01-29T07:17:16.112Z,1017.48
2023-01-29T07:17:57.653Z,1017.46
2023-01-29T07:18:38.187Z,1017.44
2023-01-29T07:19:18.711Z,1017.45
2023-01-29T07:19:59.226Z,1017.46
2023-01-29T07:20:39.736Z,1017.47
2023-01-29T07:21:20.236Z,1017.46
2023-01-29T07:22:00.734Z,1017.47
2023-01-29T07:22:41.252Z,1017.45
2023-01-29T07:23:21.766Z,1017.45
2023-01-29T07:24:02.294Z,1017.46
2023-01-29T07:24:42.745Z,1017.48
2023-01-29T07:25:23.239Z,1017.5
2023-01-29T07:26:03.829Z,1017.49
2023-01-29T07:26:44.336Z,1017.47
2023-01-29T07:27:24.876Z,1017.5
2023-01-29T07:28:05.396Z,1017.49
2023-01-29T07:28:45.903Z,1017.46
2023-01-29T07:29:26.418Z,1017.47
2023-01-29T07:30:06.930Z,1017.5
2023-01-29T07:30:47.502Z,1017.45
2023-01-29T07:31:28.116Z,1017.45
2023-01-29T07:32:08.581Z,1017.44
2023-01-29T07:32:49.047Z,1017.45
2023-01-29T07:33:29.581Z,1017.44
2023-01-29T07:34:10.082Z,1017.39
2023-01-29T07:34:50.596Z,1017.42
2023-01-29T07:35:31.092Z,1017.43
2023-01-29T07:36:12.176Z,1017.43
2023-01-29T07:36:52.696Z,1017.45
2023-01-29T07:37:33.212Z,1017.47
2023-01-29T07:38:13.746Z,1017.49
2023-01-29T07:38:54.258Z,1017.51
2023-01-29T07:39:34.802Z,1017.52
2023-01-29T07:40:15.600Z,1017.51
2023-01-29T07:40:55.858Z,1017.55
2023-01-29T07:41:36.404Z,1017.56
2023-01-29T07:42:16.937Z,1017.57
2023-01-29T07:42:57.402Z,1017.6
2023-01-29T07:43:37.922Z,1017.63
2023-01-29T07:44:19.182Z,1017.61
2023-01-29T07:44:59.691Z,1017.69
2023-01-29T07:45:40.264Z,1017.7
2023-01-29T07:46:20.718Z,1017.67
2023-01-29T07:47:01.230Z,1017.71
2023-01-29T07:47:41.730Z,1017.76
2023-01-29T07:48:22.255Z,1017.77
2023-01-29T07:49:02.761Z,1017.79
2023-01-29T07:49:43.263Z,1017.83
2023-01-29T07:50:23.771Z,1017.81
2023-01-29T07:51:04.262Z,1017.82
2023-01-29T07:51:44.804Z,1017.82
2023-01-29T07:52:25.314Z,1017.82
2023-01-29T07:53:05.812Z,1017.79
2023-01-29T07:53:47.169Z,1017.83
2023-01-29T07:54:27.682Z,1017.83
2023-01-29T07:55:08.227Z,1017.83
2023-01-29T07:55:48.730Z,1017.84
2023-01-29T07:58:01.782Z,1017.86
2023-01-29T07:58:42.276Z,1017.87
2023-01-29T07:59:22.810Z,1017.84
2023-01-29T08:00:03.364Z,1017.89
2023-01-29T08:00:43.858Z,1017.86
2023-01-29T08:01:24.388Z,1017.87
2023-01-29T08:02:04.889Z,1017.86
2023-01-29T08:02:45.375Z,1017.88
2023-01-29T08:03:25.917Z,1017.88
2023-01-29T08:04:07.266Z,1017.89
2023-01-29T08:04:47.801Z,1017.88
2023-01-29T08:05:28.296Z,1017.85
2023-01-29T08:06:08.819Z,1017.89
2023-01-29T08:06:49.314Z,1017.89
2023-01-29T08:07:29.829Z,1017.84
2023-01-29T08:08:10.350Z,1017.86
2023-01-29T08:08:50.842Z,1017.88
2023-01-29T08:09:31.389Z,1017.87
2023-01-29T08:11:29.316Z,1017.86
2023-01-29T08:12:09.834Z,1017.9
2023-01-29T08:12:50.346Z,1017.93
2023-01-29T08:13:30.864Z,1017.94
2023-01-29T08:14:11.358Z,1017.93
2023-01-29T08:14:51.889Z,1017.99
2023-01-29T08:15:32.396Z,1017.91
2023-01-29T08:16:12.967Z,1017.92
2023-01-29T08:16:53.469Z,1017.91
2023-01-29T08:17:33.942Z,1017.9
2023-01-29T08:18:14.462Z,1017.89
2023-01-29T08:18:54.986Z,1017.94
2023-01-29T08:19:35.477Z,1017.92
2023-01-29T08:20:16.260Z,1017.92
2023-01-29T08:20:56.515Z,1017.89
2023-01-29T08:21:37.033Z,1017.93
2023-01-29T08:22:17.544Z,1017.91
2023-01-29T08:22:58.733Z,1017.94
2023-01-29T08:23:39.265Z,1017.9
2023-01-29T08:24:19.838Z,1017.96
2023-01-29T08:25:08.148Z,1017.97
2023-01-29T08:25:40.900Z,1018
2023-01-29T08:26:21.395Z,1018.03
2023-01-29T08:27:01.914Z,1017.98
2023-01-29T08:27:42.991Z,1017.98
2023-01-29T08:28:23.529Z,1017.99
2023-01-29T08:29:04.083Z,1018
2023-01-29T08:29:44.619Z,1018.01
2023-01-29T08:30:25.168Z,1018.02
2023-01-29T08:31:05.737Z,1018.04
2023-01-29T08:31:46.181Z,1018.02
2023-01-29T08:32:26.686Z,1018.02
2023-01-29T08:33:07.831Z,1018
2023-01-29T08:33:48.349Z,1018.03
2023-01-29T08:34:28.880Z,1018.05
2023-01-29T08:35:09.386Z,1018.07
2023-01-29T08:35:49.898Z,1018.12
2023-01-29T08:36:30.444Z,1018.11
2023-01-29T08:37:10.941Z,1018.07
2023-01-29T08:37:52.427Z,1018.09
2023-01-29T08:38:32.951Z,1018.07
2023-01-29T08:39:13.465Z,1018.13
2023-01-29T08:39:54.014Z,1018.11
2023-01-29T08:40:34.586Z,1018.12
2023-01-29T08:41:15.059Z,1018.11
2023-01-29T08:41:55.577Z,1018.11
2023-01-29T08:42:36.143Z,1018.1
2023-01-29T08:43:16.671Z,1018.13
2023-01-29T08:43:57.272Z,1018.09
2023-01-29T08:44:37.774Z,1018.12
2023-01-29T08:45:18.304Z,1018.11
2023-01-29T08:45:58.923Z,1018.07
2023-01-29T08:46:39.319Z,1018.08
2023-01-29T08:47:19.845Z,1018.11
2023-01-29T08:48:00.373Z,1018.12
2023-01-29T08:48:40.874Z,1018.11
2023-01-29T08:49:21.394Z,1018.07
2023-01-29T08:50:01.928Z,1018.08
2023-01-29T08:50:42.420Z,1018.11
2023-01-29T08:51:22.924Z,1018.07
2023-01-29T08:52:04.089Z,1018.09
2023-01-29T08:52:44.588Z,1018.09
2023-01-29T08:53:25.109Z,1018.07
2023-01-29T08:54:05.621Z,1018.05
2023-01-29T08:54:46.134Z,1018.06
2023-01-29T08:55:26.698Z,1018.06
2023-01-29T08:56:07.195Z,1018.02
2023-01-29T08:56:47.724Z,1018.05
2023-01-29T08:57:28.241Z,1018.01
2023-01-29T08:58:08.777Z,1018.03
2023-01-29T08:58:49.289Z,1018.02
2023-01-29T08:59:29.820Z,1018
2023-01-29T09:00:10.346Z,1018.01
2023-01-29T09:00:50.884Z,1018.01
2023-01-29T09:01:31.423Z,1018.01
2023-01-29T09:02:11.943Z,1018.02
2023-01-29T09:02:52.410Z,1018.01
2023-01-29T09:03:33.592Z,1018.03
2023-01-29T09:04:14.107Z,1017.99
2023-01-29T09:04:54.631Z,1018.03
2023-01-29T09:05:35.151Z,1018.05
2023-01-29T09:06:15.661Z,1018.06
2023-01-29T09:06:56.179Z,1018.02
2023-01-29T09:07:36.705Z,1018.05
2023-01-29T09:08:17.236Z,1018.1
2023-01-29T09:08:57.741Z,1018.12
2023-01-29T09:09:38.259Z,1018.12
2023-01-29T09:10:18.784Z,1018.13
2023-01-29T09:10:59.314Z,1018.13
2023-01-29T09:11:39.835Z,1018.16
2023-01-29T09:12:20.356Z,1018.15
2023-01-29T09:14:33.457Z,1018.17
2023-01-29T09:15:14.046Z,1018.18
2023-01-29T09:15:54.508Z,1018.19
2023-01-29T09:16:35.086Z,1018.19
2023-01-29T09:17:15.579Z,1018.2
2023-01-29T09:17:56.105Z,1018.24
2023-01-29T09:18:36.682Z,1018.26
2023-01-29T09:20:49.737Z,1018.24
2023-01-29T09:21:31.236Z,1018.28
2023-01-29T09:22:12.002Z,1018.33